Murcia, Spain

4:47 AM CET on February 26, 2017 (GMT +0100)
Pilar de la Horadada | | Change Station

Elev 0 ft 37.87 °N, 0.77 °W | Updated 1 minute ago

Mostly Cloudy
Mostly Cloudy
54.9 °F
Feels Like 54.9 °F
N
3.1
Wind Variable Wind from ESE
Gusts 5.6 mph

Today
High -- | Low -- °F
--% Chance of Precip.
Yesterday
High -- | Low -- °F
Precip. -- in
Pressure 30.15 in
Visibility 6.2 miles
Clouds Few 1200 ft
Scattered Clouds 3000 ft
Dew Point 46 °F
Humidity 71%
Rainfall Not available.
Snow Depth Not available.
7:38 AM 6:53 PM
Waning Crescent, 0% visible
METAR LEAL 260330Z 28005KT 9999 FEW012 SCT030 09/08 Q1021 NOSIG
Pressure 30.15 in
Visibility 6.2 miles
Clouds Few 1200 ft
Scattered Clouds 3000 ft
Dew Point 46 °F
Humidity 71%
Rainfall Not available.
Snow Depth Not available.
7:38 AM 6:53 PM
Waning Crescent, 0% visible
METAR LEAL 260330Z 28005KT 9999 FEW012 SCT030 09/08 Q1021 NOSIG

Get Your Daily Forecast Email!

Thanks for signing up!

Be on the lookout for a verification email in your inbox.

You'll start receiving the daily forecast at 8 AM.

×

10-Day Weather Forecast

×

Almanac

Astronomy

Feb. 26, 2017 Rise Set
Actual Time
Civil Twilight
Nautical Twilight
Astronomical Twilight
Moon
Length of Visible Light
Length of Day
Tomorrow will be .
, % of the Moon is Illuminated

Today's Extremes

Country Highs Country Lows

Community

WunderPhotos

Upload Photos

1,962,540 photos uploaded!

WunderBlog® & News

Nearby

Air Quality

  Air Quality AQ Index Pollutant
Not available.

Snow Depth

Station Depth Elevation

Earthquake Activity

City Distance Mag. Time & Date
Minimum magnitude displayed is 2.5.

Coastal Water Temperatures

Place Temperature

Stations

Nearby Weather Stations

Station Location Temp. Windchill Dew Point Humidity Wind Precip. Elev Updated Type